createdAt,value
2018-12-14T00:21:49.060Z,0.10
2018-12-14T00:24:23.905Z,0.20
2018-12-14T00:26:58.057Z,0.10
2018-12-14T00:29:32.718Z,0.20
2018-12-14T00:32:07.069Z,0.10
2018-12-14T00:34:37.002Z,0.20
2018-12-14T00:37:07.819Z,0.10
2018-12-14T00:39:42.434Z,0.10
2018-12-14T00:42:17.442Z,0.10
2018-12-14T00:44:51.449Z,0.20
2018-12-14T00:47:25.678Z,0.10
2018-12-14T00:49:55.802Z,0.10
2018-12-14T00:52:29.837Z,0.10
2018-12-14T00:55:05.205Z,0.10
2018-12-14T00:57:39.826Z,0.10
2018-12-14T01:00:13.750Z,0.10
2018-12-14T01:02:49.933Z,0.10
2018-12-14T01:05:25.901Z,0.10
2018-12-14T01:08:00.730Z,0.10
2018-12-14T01:10:35.613Z,0.20
2018-12-14T01:13:09.602Z,0.10
2018-12-14T01:15:44.210Z,0.10
2018-12-14T01:18:18.113Z,0.10
2018-12-14T01:20:52.939Z,0.10
2018-12-14T01:28:31.705Z,0.10
2018-12-14T01:31:02.217Z,0.20
2018-12-14T01:33:36.329Z,0.10
2018-12-14T01:36:10.249Z,0.10
2018-12-14T01:38:45.065Z,0.00
2018-12-14T01:41:19.185Z,0.00
2018-12-14T01:43:54.366Z,0.00
2018-12-14T01:46:29.233Z,0.00
2018-12-14T01:49:03.990Z,0.00
2018-12-14T01:51:38.809Z,0.00
2018-12-14T01:54:12.917Z,0.00
2018-12-14T01:56:47.470Z,0.10
2018-12-14T01:59:21.545Z,0.00
2018-12-14T02:01:55.747Z,0.00
2018-12-14T02:04:30.293Z,-0.10
2018-12-14T02:07:04.209Z,0.10
2018-12-14T02:09:38.237Z,0.00
2018-12-14T02:12:12.195Z,0.00
2018-12-14T02:14:47.022Z,0.00
2018-12-14T02:17:21.718Z,0.00
2018-12-14T02:19:55.645Z,-0.10
2018-12-14T02:22:29.678Z,-0.10
2018-12-14T02:25:03.959Z,-0.10
2018-12-14T02:27:38.672Z,-0.10
2018-12-14T02:35:15.126Z,-0.10
2018-12-14T02:37:45.972Z,-0.10
2018-12-14T02:40:20.485Z,-0.20
2018-12-14T02:42:54.477Z,-0.20
2018-12-14T02:45:29.343Z,-0.10
2018-12-14T02:48:04.051Z,-0.20
2018-12-14T02:50:37.975Z,-0.20
2018-12-14T02:53:11.969Z,-0.20
2018-12-14T02:55:45.882Z,-0.20
2018-12-14T02:58:19.993Z,-0.10
2018-12-14T03:00:54.222Z,-0.10
2018-12-14T03:03:29.031Z,-0.20
2018-12-14T03:06:03.752Z,-0.20
2018-12-14T03:08:37.764Z,-0.20
2018-12-14T03:11:12.583Z,-0.20
2018-12-14T03:13:48.651Z,-0.20
2018-12-14T03:16:23.289Z,-0.20
2018-12-14T03:18:54.099Z,-0.20
2018-12-14T03:21:28.433Z,-0.20
2018-12-14T03:24:02.469Z,-0.20
2018-12-14T03:26:36.512Z,-0.30
2018-12-14T03:29:11.213Z,-0.20
2018-12-14T03:31:46.327Z,-0.20
2018-12-14T03:34:20.281Z,-0.20
2018-12-14T03:41:53.150Z,-0.30
2018-12-14T03:44:27.767Z,-0.30
2018-12-14T03:47:01.847Z,-0.30
2018-12-14T03:49:35.758Z,-0.30
2018-12-14T03:52:11.552Z,-0.20
2018-12-14T03:54:46.153Z,-0.30
2018-12-14T03:57:17.010Z,-0.30
2018-12-14T03:59:50.987Z,-0.30
2018-12-14T04:02:25.845Z,-0.30
2018-12-14T04:05:00.582Z,-0.30
2018-12-14T04:07:34.508Z,-0.30
2018-12-14T04:10:09.233Z,-0.30
2018-12-14T04:12:41.873Z,-0.30
2018-12-14T04:15:16.846Z,-0.20
2018-12-14T04:17:46.989Z,-0.30
2018-12-14T04:20:21.101Z,-0.30
2018-12-14T04:22:57.214Z,-0.30
2018-12-14T04:25:31.947Z,-0.30
2018-12-14T04:28:06.064Z,-0.30
2018-12-14T04:30:40.039Z,-0.30
2018-12-14T04:33:11.722Z,-0.40
2018-12-14T04:35:46.537Z,-0.40
2018-12-14T04:38:17.059Z,-0.40
2018-12-14T04:40:51.089Z,-0.40
2018-12-14T04:43:27.777Z,-0.30
2018-12-14T04:46:02.112Z,-0.40
2018-12-14T04:48:36.775Z,-0.40
2018-12-14T04:51:10.810Z,-0.40
2018-12-14T04:53:44.925Z,-0.40
2018-12-14T04:56:18.839Z,-0.50
2018-12-14T04:58:49.565Z,-0.40
2018-12-14T05:01:23.589Z,-0.40
2018-12-14T05:03:58.624Z,-0.40
2018-12-14T05:06:29.424Z,-0.40
2018-12-14T05:09:04.593Z,-0.40
2018-12-14T05:11:40.744Z,-0.40
2018-12-14T05:14:14.689Z,-0.50
2018-12-14T05:16:48.594Z,-0.50
2018-12-14T05:19:22.517Z,-0.40
2018-12-14T05:21:57.746Z,-0.40
2018-12-14T05:24:32.440Z,-0.40
2018-12-14T05:27:02.409Z,-0.40
2018-12-14T05:29:36.398Z,-0.50
2018-12-14T05:32:10.356Z,-0.50
2018-12-14T05:34:41.177Z,-0.40
2018-12-14T05:37:15.174Z,-0.40
2018-12-14T05:39:49.301Z,-0.40
2018-12-14T05:42:25.190Z,-0.40
2018-12-14T06:05:08.438Z,-0.40
2018-12-14T06:07:42.540Z,-0.50
2018-12-14T06:10:16.465Z,-0.50
2018-12-14T06:12:50.464Z,-0.40
2018-12-14T06:15:25.061Z,-0.50
2018-12-14T06:17:58.982Z,-0.50
2018-12-14T06:20:33.507Z,-0.40
2018-12-14T06:23:08.445Z,-0.50
2018-12-14T06:25:39.257Z,-0.50
2018-12-14T06:28:13.193Z,-0.50
2018-12-14T06:30:44.026Z,-0.40
2018-12-14T06:33:20.090Z,-0.50
2018-12-14T06:35:54.025Z,-0.30
2018-12-14T06:38:24.737Z,-0.40
2018-12-14T06:40:58.774Z,-0.40
2018-12-14T06:43:33.678Z,-0.30
2018-12-14T06:46:04.410Z,-0.40
2018-12-14T06:48:39.235Z,-0.30
2018-12-14T06:51:13.174Z,-0.50
2018-12-14T06:53:48.073Z,-0.50
2018-12-14T06:56:18.898Z,-0.50
2018-12-14T06:58:52.916Z,-0.50
2018-12-14T07:01:26.946Z,-0.50
2018-12-14T07:04:01.677Z,-0.60
2018-12-14T07:06:31.806Z,-0.50
2018-12-14T07:19:10.614Z,-0.60
2018-12-14T07:24:17.473Z,-0.50
2018-12-14T07:26:51.833Z,-0.50
2018-12-14T07:29:25.855Z,-0.50
2018-12-14T07:31:56.534Z,-1.10
2018-12-14T07:34:31.354Z,-0.50
2018-12-14T07:37:02.185Z,-0.50
2018-12-14T07:39:37.011Z,-0.50
2018-12-14T07:42:11.898Z,-0.50
2018-12-14T07:44:46.694Z,-0.50
2018-12-14T07:47:21.607Z,-0.50
2018-12-14T07:49:55.689Z,-0.50
2018-12-14T07:52:32.613Z,-0.50
2018-12-14T07:55:07.394Z,-0.50
2018-12-14T07:57:42.255Z,-0.50
2018-12-14T08:00:16.091Z,-0.50
2018-12-14T08:02:52.237Z,-0.50
2018-12-14T08:05:26.146Z,-0.50
2018-12-14T08:08:00.116Z,-0.50
2018-12-14T08:10:34.746Z,-0.50
2018-12-14T08:13:06.737Z,-0.40
2018-12-14T08:15:41.467Z,-0.40
2018-12-14T08:18:15.717Z,-0.30
2018-12-14T08:20:49.726Z,-0.20
2018-12-14T08:23:23.922Z,-0.30
2018-12-14T08:25:58.739Z,-0.40
2018-12-14T08:28:32.705Z,-0.30
2018-12-14T08:31:07.417Z,-0.20
2018-12-14T08:33:41.594Z,-0.30
2018-12-14T08:36:15.498Z,-0.30
2018-12-14T08:38:49.545Z,-0.20
2018-12-14T08:41:23.561Z,-0.10
2018-12-14T08:43:57.542Z,-0.10
2018-12-14T08:46:31.462Z,-0.10
2018-12-14T08:49:05.874Z,0.00
2018-12-14T08:51:40.709Z,-0.10
2018-12-14T08:54:14.854Z,-0.10
2018-12-14T08:56:48.797Z,-0.10
2018-12-14T08:59:23.645Z,-0.10
2018-12-14T09:01:57.641Z,-0.10
2018-12-14T09:04:32.466Z,0.00
2018-12-14T09:07:07.199Z,-0.10
2018-12-14T09:09:41.225Z,0.00
2018-12-14T09:12:15.316Z,-0.10
2018-12-14T09:14:50.144Z,0.10
2018-12-14T09:17:24.041Z,0.00
2018-12-14T09:19:58.041Z,0.10
2018-12-14T09:22:31.985Z,0.10
2018-12-14T09:25:06.162Z,0.00
2018-12-14T09:27:40.261Z,0.10
2018-12-14T09:30:15.081Z,0.10
2018-12-14T09:32:50.069Z,0.00
2018-12-14T09:35:24.798Z,0.00
2018-12-14T09:37:58.789Z,0.00
2018-12-14T09:40:29.501Z,0.10
2018-12-14T09:43:04.541Z,0.10
2018-12-14T09:45:39.254Z,0.10
2018-12-14T09:48:13.337Z,0.20
2018-12-14T09:50:47.926Z,0.10
2018-12-14T09:53:22.445Z,0.30
2018-12-14T09:55:56.470Z,0.20
2018-12-14T09:58:30.581Z,0.20
2018-12-14T10:01:00.654Z,0.30
2018-12-14T10:03:34.841Z,0.30
2018-12-14T10:06:15.517Z,0.30
2018-12-14T10:08:46.009Z,0.40
2018-12-14T10:11:19.957Z,0.40
2018-12-14T10:14:00.685Z,0.40
2018-12-14T10:16:31.070Z,0.40
2018-12-14T10:19:05.339Z,0.40
2018-12-14T10:21:40.152Z,0.50
2018-12-14T10:24:14.946Z,0.50
2018-12-14T10:26:49.078Z,0.50
2018-12-14T10:29:23.829Z,0.60
2018-12-14T10:31:59.903Z,0.60
2018-12-14T10:34:30.722Z,0.60
2018-12-14T10:37:04.694Z,0.70
2018-12-14T10:39:38.833Z,0.70
2018-12-14T10:42:13.538Z,0.60
2018-12-14T10:44:47.686Z,0.70
2018-12-14T10:47:18.410Z,0.70
2018-12-14T10:49:52.432Z,0.70
2018-12-14T10:52:23.064Z,0.70
2018-12-14T10:54:57.026Z,0.80
2018-12-14T10:57:31.111Z,0.70
2018-12-14T11:00:07.234Z,0.70
2018-12-14T11:02:42.226Z,0.70
2018-12-14T11:05:16.349Z,0.70
2018-12-14T11:07:50.346Z,0.70
2018-12-14T11:10:24.372Z,0.60
2018-12-14T11:13:00.270Z,0.60
2018-12-14T11:15:34.985Z,0.60
2018-12-14T11:18:08.925Z,0.60
2018-12-14T11:20:39.025Z,0.60
2018-12-14T11:23:15.429Z,0.60
2018-12-14T11:25:50.262Z,0.60
2018-12-14T11:28:24.285Z,0.50
2018-12-14T11:30:58.390Z,0.50
2018-12-14T11:33:39.319Z,0.50
2018-12-14T11:36:13.400Z,0.60
2018-12-14T11:38:48.265Z,0.60
2018-12-14T11:41:22.341Z,0.60
2018-12-14T11:43:58.218Z,0.60
2018-12-14T11:46:32.119Z,0.60
2018-12-14T11:49:06.154Z,0.60
2018-12-14T11:51:42.286Z,0.50
2018-12-14T11:54:17.495Z,0.50
2018-12-14T11:56:52.262Z,0.50
2018-12-14T11:59:26.286Z,0.60
2018-12-14T12:02:00.267Z,0.60
2018-12-14T12:04:34.237Z,0.50
2018-12-14T12:07:09.084Z,0.50
2018-12-14T12:09:43.006Z,0.60
2018-12-14T12:12:17.024Z,0.50
2018-12-14T12:14:47.633Z,0.50
2018-12-14T12:17:22.396Z,0.50
2018-12-14T12:19:56.353Z,0.40
2018-12-14T12:22:30.479Z,0.50
2018-12-14T12:25:04.418Z,0.40
2018-12-14T12:27:38.441Z,0.50
2018-12-14T12:30:12.721Z,0.40
2018-12-14T12:32:48.239Z,0.50
2018-12-14T12:35:22.474Z,0.60
2018-12-14T12:37:56.493Z,0.50
2018-12-14T12:40:31.667Z,0.50
2018-12-14T12:43:02.391Z,0.60
2018-12-14T12:45:37.138Z,0.50
2018-12-14T12:48:07.154Z,0.50
2018-12-14T12:50:41.273Z,0.60
2018-12-14T12:53:17.182Z,0.60
2018-12-14T12:55:51.106Z,0.60
2018-12-14T12:58:25.209Z,0.50
2018-12-14T13:00:59.237Z,0.40
2018-12-14T13:03:33.858Z,0.40
2018-12-14T13:06:08.009Z,0.40
2018-12-14T13:08:42.513Z,0.40
2018-12-14T13:11:16.762Z,0.50
2018-12-14T13:13:51.779Z,0.40
2018-12-14T13:16:26.626Z,0.40
2018-12-14T13:19:00.558Z,0.50
2018-12-14T13:21:35.381Z,0.40
2018-12-14T13:24:05.888Z,0.50
2018-12-14T13:26:39.798Z,0.40
2018-12-14T13:29:14.433Z,0.50
2018-12-14T13:31:51.374Z,0.40
2018-12-14T13:34:26.287Z,0.40
2018-12-14T13:37:00.403Z,0.40
2018-12-14T13:39:34.470Z,0.40
2018-12-14T13:42:10.378Z,0.40
2018-12-14T13:44:46.740Z,0.40
2018-12-14T13:47:21.105Z,0.40
2018-12-14T13:49:55.020Z,0.30
2018-12-14T13:52:29.298Z,0.40
2018-12-14T13:55:04.038Z,0.30
2018-12-14T13:57:37.970Z,0.40
2018-12-14T14:00:12.078Z,0.40
2018-12-14T14:02:48.869Z,0.40
2018-12-14T14:05:23.690Z,0.30
2018-12-14T14:07:57.598Z,0.30
2018-12-14T14:10:31.729Z,0.30
2018-12-14T14:13:06.571Z,0.30
2018-12-14T14:15:41.402Z,0.30
2018-12-14T14:18:15.501Z,0.30
2018-12-14T14:20:50.322Z,0.30
2018-12-14T14:23:24.350Z,0.30
2018-12-14T14:25:58.905Z,0.40
2018-12-14T14:28:32.714Z,0.30
2018-12-14T14:31:06.731Z,0.30
2018-12-14T14:33:40.705Z,0.30
2018-12-14T14:38:41.929Z,0.20
2018-12-14T14:41:12.788Z,0.20
2018-12-14T15:01:24.469Z,0.10
2018-12-14T15:16:30.181Z,0.00
2018-12-14T15:19:04.101Z,-0.10
2018-12-14T15:21:39.290Z,0.00
2018-12-14T15:24:13.210Z,0.00
2018-12-14T15:26:44.486Z,0.00
2018-12-14T15:29:18.853Z,0.00
2018-12-14T15:31:54.854Z,0.10
2018-12-14T15:34:29.482Z,0.00
2018-12-14T15:37:00.342Z,0.00
2018-12-14T15:39:34.299Z,0.00
2018-12-14T15:42:10.038Z,-0.10
2018-12-14T15:44:44.060Z,-0.10
2018-12-14T15:47:18.185Z,-0.10
2018-12-14T15:49:52.361Z,0.00
2018-12-14T15:52:27.982Z,-0.10
2018-12-14T15:55:02.028Z,0.00
2018-12-14T15:57:36.763Z,0.00
2018-12-14T16:00:11.642Z,0.00
2018-12-14T16:02:43.453Z,0.00
2018-12-14T16:05:17.389Z,0.00
2018-12-14T16:07:51.302Z,0.10
2018-12-14T16:10:25.337Z,0.00
2018-12-14T16:13:00.313Z,0.00
2018-12-14T16:15:34.934Z,0.00
2018-12-14T16:18:09.068Z,0.00
2018-12-14T16:20:43.925Z,0.00
2018-12-14T16:23:20.053Z,0.00
2018-12-14T16:25:54.186Z,-0.10
2018-12-14T16:28:28.313Z,-0.10
2018-12-14T16:31:03.097Z,-0.10
2018-12-14T16:33:37.834Z,-0.10
2018-12-14T16:36:11.801Z,-0.20
2018-12-14T16:38:45.626Z,-0.10
2018-12-14T16:41:19.670Z,-0.10
2018-12-14T16:43:55.502Z,-0.10
2018-12-14T16:46:30.345Z,-0.20
2018-12-14T16:49:01.173Z,-0.20
2018-12-14T16:51:35.194Z,-0.10
2018-12-14T16:54:09.696Z,-0.10
2018-12-14T16:56:43.838Z,-0.20
2018-12-14T16:59:17.971Z,-0.20
2018-12-14T17:01:52.911Z,-0.20
2018-12-14T17:04:27.021Z,-0.10
2018-12-14T17:07:01.802Z,-0.10
2018-12-14T17:09:35.843Z,-0.20
2018-12-14T17:12:10.645Z,-0.20
2018-12-14T17:14:45.466Z,-0.20
2018-12-14T17:17:16.285Z,-0.20
2018-12-14T17:19:50.293Z,-0.20
2018-12-14T17:22:27.217Z,-0.20
2018-12-14T17:25:01.145Z,-0.20
2018-12-14T17:27:35.153Z,-0.20
2018-12-14T17:30:09.337Z,-0.20
2018-12-14T17:32:43.557Z,-0.20
2018-12-14T17:35:17.476Z,-0.30
2018-12-14T17:37:51.538Z,-0.30
2018-12-14T17:40:26.259Z,-0.30
2018-12-14T17:43:07.110Z,-0.30
2018-12-14T17:45:41.023Z,-0.20
2018-12-14T17:48:14.846Z,-0.20
2018-12-14T17:50:48.973Z,-0.20
2018-12-14T17:53:23.046Z,-0.20
2018-12-14T17:55:57.471Z,-0.20
2018-12-14T17:58:31.749Z,-0.20
2018-12-14T18:01:05.801Z,-0.20
2018-12-14T18:03:36.772Z,-0.30
2018-12-14T18:06:11.385Z,-0.30
2018-12-14T18:08:46.006Z,-0.30
2018-12-14T18:11:19.938Z,-0.30
2018-12-14T18:13:55.813Z,-0.30
2018-12-14T18:16:30.729Z,-0.30
2018-12-14T18:19:05.488Z,-0.30
2018-12-14T18:21:40.333Z,-0.30
2018-12-14T18:24:10.949Z,-0.30
2018-12-14T18:26:45.090Z,-0.30
2018-12-14T18:29:15.949Z,-0.30
2018-12-14T18:31:50.179Z,-0.40
2018-12-14T18:34:25.030Z,-0.30
2018-12-14T18:36:59.080Z,-0.30
2018-12-14T18:39:33.205Z,-0.30
2018-12-14T18:42:09.237Z,-0.30
2018-12-14T18:44:40.075Z,-0.30
2018-12-14T18:47:14.117Z,-0.40
2018-12-14T18:49:48.050Z,-0.40
2018-12-14T18:52:24.110Z,-0.30
2018-12-14T18:54:58.825Z,-0.30
2018-12-14T18:57:33.793Z,-0.30
2018-12-14T19:00:05.466Z,-0.20
2018-12-14T19:02:41.371Z,-0.30
2018-12-14T19:05:15.318Z,-0.30
2018-12-14T19:07:49.361Z,-0.30
2018-12-14T19:10:23.492Z,-0.40
2018-12-14T19:12:57.541Z,-0.40
2018-12-14T19:15:32.361Z,-0.40
2018-12-14T19:18:06.377Z,-0.40
2018-12-14T19:20:37.250Z,-0.30
2018-12-14T19:23:12.129Z,0.30
2018-12-14T19:25:46.286Z,-0.30
2018-12-14T19:28:20.204Z,-0.30
2018-12-14T19:30:50.637Z,-0.30
2018-12-14T19:33:27.562Z,-0.30
2018-12-14T19:36:02.073Z,-0.30
2018-12-14T19:38:36.105Z,-0.30
2018-12-14T19:41:06.033Z,-0.30
2018-12-14T19:43:40.021Z,-0.30
2018-12-14T19:46:14.062Z,-0.30
2018-12-14T19:48:48.381Z,-0.40
2018-12-14T19:51:23.225Z,-0.40
2018-12-14T19:53:57.283Z,-0.40
2018-12-14T19:56:31.118Z,-0.30
2018-12-14T19:59:05.315Z,-0.30
2018-12-14T20:01:40.241Z,-0.30
2018-12-14T20:04:15.067Z,-0.30
2018-12-14T20:06:49.865Z,-0.40
2018-12-14T20:09:24.690Z,-0.40
2018-12-14T20:11:59.664Z,-0.40
2018-12-14T20:14:33.810Z,-0.40
2018-12-14T20:17:08.545Z,-0.40
2018-12-14T20:19:42.478Z,-0.40
2018-12-14T20:22:18.462Z,-0.40
2018-12-14T20:24:53.301Z,-0.40
2018-12-14T20:27:24.106Z,-0.50
2018-12-14T20:29:58.033Z,-0.40
2018-12-14T20:32:32.143Z,-0.40
2018-12-14T20:35:07.062Z,-0.40
2018-12-14T20:37:37.572Z,-0.40
2018-12-14T20:40:12.329Z,-0.40
2018-12-14T20:42:46.251Z,-0.40
2018-12-14T20:45:21.133Z,-0.40
2018-12-14T20:47:51.841Z,-0.40
2018-12-14T20:50:26.578Z,-0.40
2018-12-14T20:53:02.497Z,-0.40
2018-12-14T20:55:37.229Z,-0.40
2018-12-14T20:58:08.042Z,-0.30
2018-12-14T21:00:42.283Z,-0.30
2018-12-14T21:03:16.370Z,-0.30
2018-12-14T21:05:51.365Z,-0.30
2018-12-14T21:08:26.424Z,-0.40
2018-12-14T21:11:01.313Z,-0.40
2018-12-14T21:13:36.421Z,-0.40
2018-12-14T21:16:11.293Z,-0.40
2018-12-14T21:18:45.999Z,-0.40
2018-12-14T21:21:19.941Z,-0.40
2018-12-14T21:23:54.092Z,-0.40
2018-12-14T21:26:29.213Z,-0.40
2018-12-14T21:29:00.045Z,-0.40
2018-12-14T21:31:33.886Z,-0.40
2018-12-14T21:34:07.912Z,-0.50
2018-12-14T21:36:42.027Z,-0.40
2018-12-14T21:39:15.974Z,-0.40
2018-12-14T21:41:49.930Z,-0.40
2018-12-14T21:44:24.256Z,-0.50
2018-12-14T21:46:59.094Z,-0.50
2018-12-14T21:49:33.897Z,-0.50
2018-12-14T21:52:05.190Z,-0.50
2018-12-14T21:54:35.891Z,-0.50
2018-12-14T21:57:09.827Z,-0.60
2018-12-14T21:59:43.769Z,-0.60
2018-12-14T22:02:19.773Z,-0.60
2018-12-14T22:04:53.758Z,-0.50
2018-12-14T22:07:24.574Z,-0.50
2018-12-14T22:09:58.581Z,-0.50
2018-12-14T22:12:32.507Z,-0.40
2018-12-14T22:15:03.961Z,-0.40
2018-12-14T22:17:38.336Z,-0.40
2018-12-14T22:20:13.225Z,-0.50
2018-12-14T22:22:49.383Z,-0.50
2018-12-14T22:25:23.290Z,-0.40
2018-12-14T22:27:54.114Z,-0.50
2018-12-14T22:30:28.929Z,-0.50
2018-12-14T22:32:59.814Z,-0.50
2018-12-14T22:35:33.830Z,-0.50
2018-12-14T22:38:07.952Z,-0.50
2018-12-14T22:40:41.978Z,-0.50
2018-12-14T22:43:17.070Z,-0.40
2018-12-14T22:45:51.781Z,-0.40
2018-12-14T22:48:25.959Z,-0.50
2018-12-14T22:50:56.432Z,-0.50
2018-12-14T22:53:30.644Z,-0.50
2018-12-14T22:56:05.333Z,-0.50
2018-12-14T22:58:39.497Z,-0.50
2018-12-14T23:01:13.498Z,-0.50
2018-12-14T23:03:49.441Z,-0.50
2018-12-14T23:06:23.458Z,-0.50
2018-12-14T23:08:57.501Z,-0.50
2018-12-14T23:11:31.763Z,-0.50
2018-12-14T23:14:06.323Z,-0.50
2018-12-14T23:16:40.322Z,-0.60
2018-12-14T23:19:14.402Z,-0.50
2018-12-14T23:21:49.512Z,-0.50
2018-12-14T23:24:24.413Z,-0.50
2018-12-14T23:26:59.132Z,-0.50
2018-12-14T23:29:33.070Z,-0.50
2018-12-14T23:32:09.085Z,-0.50
2018-12-14T23:34:42.997Z,-0.50
2018-12-14T23:37:16.951Z,-0.50
2018-12-14T23:39:50.962Z,-0.60
2018-12-14T23:42:25.177Z,-0.50
2018-12-14T23:45:00.030Z,-0.50
2018-12-14T23:47:34.777Z,-0.50
2018-12-14T23:50:08.805Z,-0.50
2018-12-14T23:52:42.805Z,-0.50
2018-12-14T23:55:16.725Z,-0.50
2018-12-14T23:57:50.735Z,-0.50
